createdAt,value
2023-02-22T00:01:09.515Z,101702.40
2023-02-22T00:03:39.147Z,101702.80
2023-02-22T00:06:07.073Z,101699.40
2023-02-22T00:08:37.676Z,101699.00
2023-02-22T00:11:10.651Z,101698.00
2023-02-22T00:13:39.183Z,101699.60
2023-02-22T00:16:07.453Z,101699.20
2023-02-22T00:18:35.253Z,101697.80
2023-02-22T00:21:04.059Z,101699.60
2023-02-22T00:23:35.523Z,101695.40
2023-02-22T00:26:03.393Z,101698.60
2023-02-22T00:28:31.121Z,101695.80
2023-02-22T00:31:00.106Z,101697.60
2023-02-22T00:33:29.404Z,101701.00
2023-02-22T00:35:57.291Z,101700.80
2023-02-22T00:38:26.745Z,101701.20
2023-02-22T00:40:58.489Z,101703.00
2023-02-22T00:43:26.451Z,101695.60
2023-02-22T00:45:54.298Z,101692.20
2023-02-22T00:48:22.069Z,101692.20
2023-02-22T00:50:52.977Z,101695.20
2023-02-22T00:53:25.658Z,101690.20
2023-02-22T00:55:53.839Z,101694.80
2023-02-22T00:58:22.572Z,101694.20
2023-02-22T01:00:51.232Z,101699.20
2023-02-22T01:03:20.818Z,101694.00
2023-02-22T01:05:48.657Z,101693.80
2023-02-22T01:08:17.962Z,101695.60
2023-02-22T01:10:46.750Z,101690.60
2023-02-22T01:13:14.544Z,101692.60
2023-02-22T01:15:45.081Z,101691.20
2023-02-22T01:18:13.604Z,101692.60
2023-02-22T01:20:41.304Z,101689.40
2023-02-22T01:23:10.729Z,101688.60
2023-02-22T01:25:38.774Z,101690.00
2023-02-22T01:28:08.085Z,101691.60
2023-02-22T01:30:37.885Z,101690.40
2023-02-22T01:33:08.723Z,101693.40
2023-02-22T01:35:42.912Z,101694.00
2023-02-22T01:38:10.806Z,101694.60
2023-02-22T01:40:43.187Z,101695.60
2023-02-22T01:43:16.344Z,101696.80
2023-02-22T01:46:01.151Z,101695.00
2023-02-22T01:48:47.123Z,101694.40
2023-02-22T01:51:24.557Z,101695.80
2023-02-22T01:53:57.027Z,101694.00
2023-02-22T01:56:30.563Z,101695.40
2023-02-22T01:59:07.165Z,101695.20
2023-02-22T02:01:43.506Z,101692.80
2023-02-22T02:04:19.818Z,101689.00
2023-02-22T02:06:50.689Z,101695.00
2023-02-22T02:09:33.122Z,101695.60
2023-02-22T02:12:05.419Z,101700.80
2023-02-22T02:14:33.502Z,101698.20
2023-02-22T02:17:02.393Z,101694.60
2023-02-22T02:19:48.452Z,101696.20
2023-02-22T02:22:42.838Z,101693.00
2023-02-22T02:25:31.121Z,101693.40
2023-02-22T02:28:30.479Z,101690.00
2023-02-22T02:31:54.077Z,101694.80
2023-02-22T02:34:34.127Z,101685.80
2023-02-22T02:37:12.866Z,101685.20
2023-02-22T02:40:06.638Z,101687.80
2023-02-22T02:42:44.340Z,101691.20
2023-02-22T02:45:21.981Z,101691.00
2023-02-22T02:47:58.856Z,101690.20
2023-02-22T02:50:35.906Z,101684.40
2023-02-22T02:53:10.690Z,101681.20
2023-02-22T02:55:38.998Z,101682.60
2023-02-22T02:58:09.166Z,101686.00
2023-02-22T03:00:42.221Z,101685.20
2023-02-22T03:03:56.297Z,101684.00
2023-02-22T03:07:00.854Z,101686.40
2023-02-22T03:10:45.364Z,101681.80
2023-02-22T03:13:38.507Z,101678.60
2023-02-22T03:16:52.145Z,101677.40
2023-02-22T03:19:34.785Z,101677.00
2023-02-22T03:22:32.677Z,101671.00
2023-02-22T03:25:14.096Z,101669.60
2023-02-22T03:27:53.420Z,101668.20
2023-02-22T03:30:35.922Z,101666.40
2023-02-22T03:33:13.116Z,101663.00
2023-02-22T03:36:13.438Z,101655.80
2023-02-22T03:38:45.513Z,101659.00
2023-02-22T03:41:18.971Z,101654.80
2023-02-22T03:43:54.871Z,101655.60
2023-02-22T03:46:23.928Z,101656.00
2023-02-22T03:49:03.098Z,101655.80
2023-02-22T03:51:33.320Z,101652.60
2023-02-22T03:54:02.379Z,101652.40
2023-02-22T03:57:12.383Z,101654.60
2023-02-22T03:59:40.994Z,101653.00
2023-02-22T04:02:09.008Z,101652.40
2023-02-22T04:04:38.473Z,101646.60
2023-02-22T04:07:06.877Z,101640.40
2023-02-22T04:09:35.565Z,101644.40
2023-02-22T04:12:04.278Z,101644.00
2023-02-22T04:14:32.189Z,101647.40
2023-02-22T04:17:00.384Z,101650.20
2023-02-22T04:19:29.788Z,101650.60
2023-02-22T04:21:58.084Z,101646.20
2023-02-22T04:24:25.946Z,101648.20
2023-02-22T04:26:55.572Z,101646.80
2023-02-22T04:29:23.908Z,101642.40
2023-02-22T04:31:51.741Z,101642.60
2023-02-22T04:34:19.683Z,101637.80
2023-02-22T04:36:47.928Z,101640.60
2023-02-22T04:39:15.709Z,101641.20
2023-02-22T04:41:43.992Z,101640.00
2023-02-22T04:44:11.734Z,101642.80
2023-02-22T04:46:39.554Z,101646.20
2023-02-22T04:49:07.497Z,101645.00
2023-02-22T04:51:36.826Z,101638.00
2023-02-22T04:54:04.630Z,101643.00
2023-02-22T04:56:33.162Z,101640.20
2023-02-22T04:59:01.227Z,101636.20
2023-02-22T05:01:37.903Z,101637.60
2023-02-22T05:04:08.586Z,101636.80
2023-02-22T05:06:37.244Z,101639.80
2023-02-22T05:09:05.167Z,101643.20
2023-02-22T05:11:32.953Z,101642.40
2023-02-22T05:14:01.350Z,101645.00
2023-02-22T05:16:29.516Z,101647.60
2023-02-22T05:18:57.257Z,101646.40
2023-02-22T05:21:25.136Z,101650.60
2023-02-22T05:23:53.138Z,101648.20
2023-02-22T05:26:20.872Z,101641.80
2023-02-22T05:28:49.221Z,101643.20
2023-02-22T05:31:17.952Z,101640.60
2023-02-22T05:33:47.216Z,101641.20
2023-02-22T05:36:16.851Z,101647.60
2023-02-22T05:38:45.607Z,101649.20
2023-02-22T05:41:14.009Z,101653.60
2023-02-22T05:43:42.277Z,101654.60
2023-02-22T05:46:10.397Z,101652.00
2023-02-22T05:48:38.512Z,101656.60
2023-02-22T05:51:07.565Z,101657.60
2023-02-22T05:53:37.405Z,101657.00
2023-02-22T05:56:06.535Z,101655.20
2023-02-22T05:58:35.579Z,101649.40
2023-02-22T06:01:03.948Z,101653.60
2023-02-22T06:03:31.788Z,101647.20
2023-02-22T06:05:59.829Z,101650.40
2023-02-22T06:08:28.058Z,101652.20
2023-02-22T06:10:55.773Z,101652.20
2023-02-22T06:13:23.871Z,101652.00
2023-02-22T06:15:52.469Z,101661.60
2023-02-22T06:18:20.709Z,101660.20
2023-02-22T06:20:49.790Z,101662.80
2023-02-22T06:23:18.032Z,101664.80
2023-02-22T06:25:45.699Z,101664.80
2023-02-22T06:28:14.978Z,101660.60
2023-02-22T06:30:43.493Z,101661.60
2023-02-22T06:33:12.709Z,101657.60
2023-02-22T06:35:40.443Z,101657.20
2023-02-22T06:38:08.716Z,101660.20
2023-02-22T06:40:37.906Z,101661.40
2023-02-22T06:43:05.658Z,101660.80
2023-02-22T06:45:37.577Z,101667.80
2023-02-22T06:48:05.579Z,101671.00
2023-02-22T06:50:35.921Z,101670.80
2023-02-22T06:53:07.038Z,101677.60
2023-02-22T06:55:36.165Z,101678.40
2023-02-22T06:58:06.572Z,101683.60
2023-02-22T07:00:34.738Z,101684.40
2023-02-22T07:03:04.704Z,101686.80
2023-02-22T07:05:32.777Z,101688.60
2023-02-22T07:08:07.687Z,101689.80
2023-02-22T07:10:39.759Z,101689.60
2023-02-22T07:13:09.002Z,101691.40
2023-02-22T07:15:38.780Z,101693.40
2023-02-22T07:18:07.712Z,101696.80
2023-02-22T07:20:36.506Z,101693.00
2023-02-22T07:23:06.054Z,101694.80
2023-02-22T07:25:35.756Z,101699.20
2023-02-22T07:28:05.205Z,101704.60
2023-02-22T07:30:35.732Z,101707.80
2023-02-22T07:33:07.798Z,101708.60
2023-02-22T07:35:43.284Z,101713.60
2023-02-22T07:38:17.496Z,101720.40
2023-02-22T07:40:47.240Z,101718.40
2023-02-22T07:43:27.834Z,101724.40
2023-02-22T07:45:59.277Z,101722.00
2023-02-22T07:48:29.607Z,101721.40
2023-02-22T07:50:59.070Z,101720.20
2023-02-22T07:53:33.220Z,101724.20
2023-02-22T07:56:05.525Z,101731.80
2023-02-22T07:58:33.671Z,101734.00
2023-02-22T08:01:10.224Z,101741.20
2023-02-22T08:03:47.816Z,101733.20
2023-02-22T08:06:15.690Z,101738.40
2023-02-22T08:08:44.604Z,101740.60
2023-02-22T08:11:12.948Z,101737.20
2023-02-22T08:13:41.946Z,101742.40
2023-02-22T08:16:10.688Z,101739.00
2023-02-22T08:18:39.148Z,101754.60
2023-02-22T08:21:09.847Z,101745.60
2023-02-22T08:23:38.958Z,101744.40
2023-02-22T08:26:09.977Z,101741.40
2023-02-22T08:28:41.557Z,101736.20
2023-02-22T08:31:09.697Z,101739.20
2023-02-22T08:33:39.716Z,101746.80
2023-02-22T08:36:08.441Z,101746.80
2023-02-22T08:38:37.876Z,101745.60
2023-02-22T08:41:09.430Z,101747.20
2023-02-22T08:43:38.437Z,101749.00
2023-02-22T08:46:06.237Z,101744.80
2023-02-22T08:48:35.321Z,101746.60
2023-02-22T08:51:03.476Z,101749.00
2023-02-22T08:53:33.370Z,101744.20
2023-02-22T08:56:01.722Z,101742.00
2023-02-22T08:58:30.336Z,101746.80
2023-02-22T09:01:00.467Z,101743.20
2023-02-22T09:03:29.278Z,101743.20
2023-02-22T09:06:02.128Z,101741.80
2023-02-22T09:08:29.867Z,101734.40
2023-02-22T09:10:58.908Z,101728.60
2023-02-22T09:13:27.200Z,101727.80
2023-02-22T09:15:56.242Z,101730.60
2023-02-22T09:18:35.957Z,101731.20
2023-02-22T09:21:12.347Z,101741.40
2023-02-22T09:23:41.730Z,101745.20
2023-02-22T09:26:10.430Z,101753.60
2023-02-22T09:28:39.608Z,101747.80
2023-02-22T09:31:09.034Z,101749.00
2023-02-22T09:33:37.170Z,101750.60
2023-02-22T09:36:07.324Z,101753.40
2023-02-22T09:38:36.380Z,101756.20
2023-02-22T09:41:14.551Z,101761.80
2023-02-22T09:44:04.147Z,101758.60
2023-02-22T09:46:42.271Z,101764.00
2023-02-22T09:49:15.959Z,101762.80
2023-02-22T09:51:55.796Z,101764.00
2023-02-22T09:54:41.868Z,101764.40
2023-02-22T09:57:23.521Z,101761.00
2023-02-22T10:00:15.582Z,101765.40
2023-02-22T10:02:59.874Z,101766.60
2023-02-22T10:05:34.122Z,101765.00
2023-02-22T10:08:31.609Z,101769.60
2023-02-22T10:11:53.698Z,101777.60
2023-02-22T10:15:02.964Z,101777.80
2023-02-22T10:17:55.994Z,101770.40
2023-02-22T10:20:57.311Z,101779.00
2023-02-22T10:23:38.609Z,101770.60
2023-02-22T10:26:12.439Z,101776.40
2023-02-22T10:28:55.399Z,101765.80
2023-02-22T10:31:44.480Z,101773.40
2023-02-22T10:34:28.795Z,101776.40
2023-02-22T10:37:21.226Z,101767.00
2023-02-22T10:39:53.128Z,101772.00
2023-02-22T10:42:26.213Z,101779.60
2023-02-22T10:44:55.205Z,101778.80
2023-02-22T10:47:25.055Z,101774.20
2023-02-22T10:50:01.855Z,101768.60
2023-02-22T10:52:35.085Z,101773.00
2023-02-22T10:55:15.629Z,101777.60
2023-02-22T10:57:51.208Z,101774.80
2023-02-22T11:00:40.350Z,101775.20
2023-02-22T11:03:22.643Z,101772.00
2023-02-22T11:05:52.706Z,101777.40
2023-02-22T11:08:32.029Z,101782.20
2023-02-22T11:11:18.937Z,101784.20
2023-02-22T11:13:56.134Z,101780.20
2023-02-22T11:16:38.636Z,101776.00
2023-02-22T11:19:16.237Z,101782.20
2023-02-22T11:21:48.055Z,101783.40
2023-02-22T11:27:09.229Z,101778.00
2023-02-22T11:29:38.435Z,101771.60
2023-02-22T11:32:22.438Z,101769.60
2023-02-22T11:35:03.684Z,101768.00
2023-02-22T11:37:38.230Z,101769.40
2023-02-22T11:40:22.278Z,101770.40
2023-02-22T11:43:10.806Z,101770.60
2023-02-22T11:45:49.875Z,101767.00
2023-02-22T11:48:24.955Z,101757.60
2023-02-22T11:51:02.900Z,101754.60
2023-02-22T11:54:29.957Z,101755.00
2023-02-22T11:57:38.757Z,101752.60
2023-02-22T12:00:54.173Z,101756.40
2023-02-22T12:03:49.618Z,101763.80
2023-02-22T12:06:40.618Z,101767.60
2023-02-22T12:09:23.749Z,101769.40
2023-02-22T12:12:23.823Z,101768.00
2023-02-22T12:15:31.693Z,101771.00
2023-02-22T12:18:35.813Z,101759.60
2023-02-22T12:21:12.610Z,101755.40
2023-02-22T12:23:54.861Z,101753.40
2023-02-22T12:26:41.318Z,101751.00
2023-02-22T12:29:37.695Z,101758.80
2023-02-22T12:32:18.832Z,101760.40
2023-02-22T12:34:59.623Z,101759.80
2023-02-22T12:37:40.112Z,101751.60
2023-02-22T12:40:28.420Z,101749.60
2023-02-22T12:43:18.377Z,101749.60
2023-02-22T12:46:13.762Z,101748.00
2023-02-22T12:49:19.000Z,101753.80
2023-02-22T12:53:00.798Z,101761.80
2023-02-22T12:55:45.745Z,101763.20
2023-02-22T12:58:54.206Z,101761.60
2023-02-22T13:01:33.381Z,101763.60
2023-02-22T13:04:19.515Z,101763.40
2023-02-22T13:07:18.788Z,101765.00
2023-02-22T13:10:54.695Z,101761.60
2023-02-22T13:14:04.574Z,101765.00
2023-02-22T13:17:41.697Z,101754.00
2023-02-22T13:20:54.072Z,101749.80
2023-02-22T13:24:05.521Z,101749.00
2023-02-22T13:27:09.813Z,101752.40
2023-02-22T13:29:52.115Z,101746.80
2023-02-22T13:33:02.864Z,101737.20
2023-02-22T13:35:56.980Z,101726.00
2023-02-22T13:39:27.997Z,101730.80
2023-02-22T13:42:56.830Z,101733.80
2023-02-22T13:45:53.001Z,101741.40
2023-02-22T13:48:46.760Z,101734.60
2023-02-22T13:51:34.739Z,101728.60
2023-02-22T13:54:44.717Z,101728.60
2023-02-22T13:57:28.375Z,101726.60
2023-02-22T14:00:23.150Z,101721.20
2023-02-22T14:03:15.401Z,101728.20
2023-02-22T14:05:51.382Z,101717.00
2023-02-22T14:08:21.933Z,101713.20
2023-02-22T14:10:57.557Z,101706.40
2023-02-22T14:13:27.503Z,101707.20
2023-02-22T14:16:00.031Z,101702.60
2023-02-22T14:18:31.711Z,101698.20
2023-02-22T14:21:23.038Z,101694.40
2023-02-22T14:24:05.705Z,101690.80
2023-02-22T14:26:40.457Z,101682.80
2023-02-22T14:29:08.173Z,101678.40
2023-02-22T14:31:47.639Z,101671.60
2023-02-22T14:34:52.065Z,101661.80
2023-02-22T14:37:29.016Z,101667.40
2023-02-22T14:40:18.697Z,101671.00
2023-02-22T14:42:58.746Z,101667.60
2023-02-22T14:45:35.081Z,101664.20
2023-02-22T14:48:25.069Z,101669.00
2023-02-22T14:51:25.880Z,101664.20
2023-02-22T14:54:09.758Z,101664.00
2023-02-22T14:57:15.112Z,101662.60
2023-02-22T15:00:20.392Z,101660.60
2023-02-22T15:02:52.655Z,101660.40
2023-02-22T15:05:22.249Z,101662.60
2023-02-22T15:07:56.224Z,101657.40
2023-02-22T15:10:31.708Z,101660.40
2023-02-22T15:13:14.055Z,101663.80
2023-02-22T15:15:54.747Z,101661.20
2023-02-22T15:19:09.818Z,101661.00
2023-02-22T15:21:46.056Z,101658.20
2023-02-22T15:24:27.870Z,101654.60
2023-02-22T15:27:06.724Z,101662.60
2023-02-22T15:29:44.675Z,101663.20
2023-02-22T15:32:31.655Z,101653.40
2023-02-22T15:35:23.381Z,101656.00
2023-02-22T15:38:10.754Z,101655.40
2023-02-22T15:40:44.628Z,101653.40
2023-02-22T15:43:28.774Z,101647.20
2023-02-22T15:46:00.302Z,101642.60
2023-02-22T15:48:34.235Z,101647.20
2023-02-22T15:51:17.549Z,101642.60
2023-02-22T15:53:52.276Z,101638.40
2023-02-22T15:56:32.309Z,101632.60
2023-02-22T15:59:15.715Z,101632.60
2023-02-22T16:01:48.619Z,101631.60
2023-02-22T16:04:24.182Z,101626.60
2023-02-22T16:07:17.230Z,101626.80
2023-02-22T16:09:51.071Z,101621.80
2023-02-22T16:12:21.547Z,101614.40
2023-02-22T16:14:58.031Z,101615.40
2023-02-22T16:17:59.754Z,101612.20
2023-02-22T16:20:32.852Z,101608.80
2023-02-22T16:23:21.197Z,101613.00
2023-02-22T16:26:04.331Z,101608.00
2023-02-22T16:28:36.078Z,101603.20
2023-02-22T16:31:04.488Z,101598.20
2023-02-22T16:33:33.985Z,101598.20
2023-02-22T16:36:08.432Z,101596.20
2023-02-22T16:38:38.661Z,101588.00
2023-02-22T16:41:08.158Z,101590.20
2023-02-22T16:43:38.522Z,101586.40
2023-02-22T16:46:07.348Z,101588.20
2023-02-22T16:48:39.179Z,101590.80
2023-02-22T16:51:20.305Z,101589.20
2023-02-22T16:53:50.548Z,101587.20
2023-02-22T16:56:31.453Z,101581.80
2023-02-22T16:59:06.541Z,101583.00
2023-02-22T17:01:35.520Z,101588.20
2023-02-22T17:04:14.534Z,101589.20
2023-02-22T17:06:43.778Z,101587.40
2023-02-22T17:09:11.716Z,101582.60
2023-02-22T17:11:40.311Z,101578.20
2023-02-22T17:14:08.196Z,101572.20
2023-02-22T17:16:37.070Z,101565.40
2023-02-22T17:19:15.664Z,101564.60
2023-02-22T17:21:43.594Z,101563.60
2023-02-22T17:24:23.042Z,101563.00
2023-02-22T17:26:53.188Z,101555.00
2023-02-22T17:29:24.406Z,101556.40
2023-02-22T17:31:53.057Z,101549.00
2023-02-22T17:34:21.248Z,101550.20
2023-02-22T17:36:49.064Z,101550.40
2023-02-22T17:39:18.137Z,101546.20
2023-02-22T17:41:50.484Z,101547.60
2023-02-22T17:44:21.845Z,101550.20
2023-02-22T17:46:49.556Z,101548.80
2023-02-22T17:49:19.445Z,101548.00
2023-02-22T17:51:51.000Z,101545.00
2023-02-22T17:54:19.720Z,101541.40
2023-02-22T17:56:48.336Z,101535.20
2023-02-22T17:59:17.464Z,101536.60
2023-02-22T18:01:46.946Z,101532.40
2023-02-22T18:04:17.925Z,101537.00
2023-02-22T18:06:46.771Z,101534.00
2023-02-22T18:09:17.810Z,101529.00
2023-02-22T18:11:46.157Z,101528.60
2023-02-22T18:14:14.473Z,101524.60
2023-02-22T18:16:43.037Z,101522.80
2023-02-22T18:19:23.163Z,101524.40
2023-02-22T18:21:52.686Z,101516.80
2023-02-22T18:24:20.493Z,101518.60
2023-02-22T18:26:50.658Z,101518.00
2023-02-22T18:29:18.618Z,101511.40
2023-02-22T18:31:48.623Z,101508.40
2023-02-22T18:34:17.538Z,101507.60
2023-02-22T18:36:45.948Z,101502.00
2023-02-22T18:39:14.054Z,101499.80
2023-02-22T18:41:42.367Z,101498.40
2023-02-22T18:44:11.410Z,101493.60
2023-02-22T18:46:39.935Z,101489.40
2023-02-22T18:49:13.129Z,101488.80
2023-02-22T18:51:43.820Z,101490.20
2023-02-22T18:54:12.743Z,101492.00
2023-02-22T18:56:43.347Z,101499.60
2023-02-22T18:59:25.493Z,101487.20
2023-02-22T19:01:53.657Z,101488.40
2023-02-22T19:04:25.735Z,101484.20
2023-02-22T19:06:58.211Z,101481.40
2023-02-22T19:09:28.416Z,101481.60
2023-02-22T19:11:57.481Z,101475.80
2023-02-22T19:14:25.666Z,101482.20
2023-02-22T19:16:56.689Z,101478.80
2023-02-22T19:19:26.572Z,101480.00
2023-02-22T19:21:58.450Z,101478.60
2023-02-22T19:24:29.376Z,101473.20
2023-02-22T19:27:00.020Z,101470.00
2023-02-22T19:29:31.259Z,101468.20
2023-02-22T19:31:59.307Z,101460.40
2023-02-22T19:34:29.501Z,101468.60
2023-02-22T19:37:01.129Z,101464.00
2023-02-22T19:39:30.329Z,101458.80
2023-02-22T19:42:00.537Z,101461.60
2023-02-22T19:44:30.455Z,101455.00
2023-02-22T19:47:01.217Z,101454.00
2023-02-22T19:49:32.243Z,101450.80
2023-02-22T19:52:06.506Z,101450.20
2023-02-22T19:54:37.728Z,101452.00
2023-02-22T19:57:05.991Z,101438.80
2023-02-22T19:59:35.518Z,101435.00
2023-02-22T20:02:03.982Z,101434.60
2023-02-22T20:04:32.725Z,101437.00
2023-02-22T20:07:00.585Z,101429.60
2023-02-22T20:09:40.289Z,101423.00
2023-02-22T20:12:08.852Z,101427.40
2023-02-22T20:14:38.932Z,101421.40
2023-02-22T20:17:07.881Z,101416.60
2023-02-22T20:19:40.518Z,101415.60
2023-02-22T20:22:12.420Z,101413.20
2023-02-22T20:24:41.918Z,101415.20
2023-02-22T20:27:09.902Z,101410.20
2023-02-22T20:29:37.845Z,101410.80
2023-02-22T20:32:06.604Z,101409.60
2023-02-22T20:34:36.853Z,101404.60
2023-02-22T20:37:04.872Z,101401.80
2023-02-22T20:39:32.746Z,101400.20
2023-02-22T20:42:04.705Z,101395.00
2023-02-22T20:44:32.968Z,101393.40
2023-02-22T20:47:03.376Z,101387.00
2023-02-22T20:49:33.892Z,101379.00
2023-02-22T20:52:01.848Z,101377.20
2023-02-22T20:54:31.284Z,101372.20
2023-02-22T20:57:00.785Z,101368.00
2023-02-22T20:59:30.513Z,101365.80
2023-02-22T21:02:01.443Z,101358.40
2023-02-22T21:04:33.132Z,101363.40
2023-02-22T21:07:02.807Z,101363.00
2023-02-22T21:09:38.352Z,101363.40
2023-02-22T21:12:13.292Z,101357.20
2023-02-22T21:14:44.690Z,101352.00
2023-02-22T21:17:12.808Z,101349.80
2023-02-22T21:19:42.890Z,101341.60
2023-02-22T21:22:11.281Z,101348.40
2023-02-22T21:24:39.591Z,101346.40
2023-02-22T21:27:09.118Z,101344.80
2023-02-22T21:29:38.320Z,101343.00
2023-02-22T21:32:06.502Z,101335.80
2023-02-22T21:34:37.356Z,101335.80
2023-02-22T21:37:08.132Z,101331.40
2023-02-22T21:39:36.428Z,101325.80
2023-02-22T21:42:07.949Z,101322.60
2023-02-22T21:44:38.582Z,101321.20
2023-02-22T21:47:07.254Z,101317.40
2023-02-22T21:49:36.401Z,101312.20
2023-02-22T21:52:10.616Z,101310.80
2023-02-22T21:54:38.492Z,101312.20
2023-02-22T21:57:06.474Z,101307.20
2023-02-22T21:59:37.057Z,101307.60
2023-02-22T22:02:06.210Z,101307.40
2023-02-22T22:04:35.028Z,101303.20
2023-02-22T22:07:05.996Z,101298.60
2023-02-22T22:09:39.752Z,101301.00
2023-02-22T22:12:10.195Z,101293.20
2023-02-22T22:14:38.108Z,101291.20
2023-02-22T22:17:09.618Z,101289.00
2023-02-22T22:19:40.514Z,101283.80
2023-02-22T22:22:08.768Z,101277.00
2023-02-22T22:24:38.086Z,101277.60
2023-02-22T22:27:09.597Z,101276.80
2023-02-22T22:29:39.044Z,101273.60
2023-02-22T22:32:07.748Z,101267.80
2023-02-22T22:34:38.032Z,101267.20
2023-02-22T22:37:09.254Z,101261.00
2023-02-22T22:39:38.564Z,101260.40
2023-02-22T22:42:09.106Z,101261.00
2023-02-22T22:44:42.970Z,101257.00
2023-02-22T22:47:12.365Z,101248.20
2023-02-22T22:49:42.718Z,101245.40
2023-02-22T22:52:14.278Z,101244.00
2023-02-22T22:54:43.610Z,101242.80
2023-02-22T22:57:12.923Z,101244.40
2023-02-22T22:59:44.647Z,101243.60
2023-02-22T23:02:21.050Z,101235.00
2023-02-22T23:04:52.616Z,101234.80
2023-02-22T23:07:20.272Z,101235.20
2023-02-22T23:09:47.925Z,101235.00
2023-02-22T23:12:17.991Z,101230.80
2023-02-22T23:14:46.146Z,101227.40
2023-02-22T23:17:30.905Z,101227.00
2023-02-22T23:19:59.849Z,101224.60
2023-02-22T23:22:30.014Z,101218.20
2023-02-22T23:25:00.109Z,101210.60
2023-02-22T23:27:28.531Z,101207.20
2023-02-22T23:29:59.339Z,101200.60
2023-02-22T23:32:27.289Z,101202.60
2023-02-22T23:34:55.591Z,101198.20
2023-02-22T23:37:26.908Z,101195.20
2023-02-22T23:40:00.124Z,101192.20
2023-02-22T23:42:29.245Z,101188.60
2023-02-22T23:44:57.936Z,101185.40
2023-02-22T23:47:31.712Z,101182.60
2023-02-22T23:49:59.858Z,101180.20
2023-02-22T23:52:30.043Z,101172.20
2023-02-22T23:54:58.990Z,101174.40
2023-02-22T23:57:28.305Z,101165.60
2023-02-22T23:59:56.257Z,101164.40
